sensor_id;sensor_type;location;lat;lon;timestamp;temperature;humidity
64689;DHT22;62504;46.070;14.492;2024-02-28T00:00:57;9.50;99.90
64689;DHT22;62504;46.070;14.492;2024-02-28T00:03:22;9.40;99.90
64689;DHT22;62504;46.070;14.492;2024-02-28T00:05:49;9.40;99.90
64689;DHT22;62504;46.070;14.492;2024-02-28T00:08:15;9.30;99.90
64689;DHT22;62504;46.070;14.492;2024-02-28T00:10:42;9.20;99.90
64689;DHT22;62504;46.070;14.492;2024-02-28T00:13:08;9.20;99.90
64689;DHT22;62504;46.070;14.492;2024-02-28T00:15:33;9.30;99.90
64689;DHT22;62504;46.070;14.492;2024-02-28T00:17:59;9.40;99.90
64689;DHT22;62504;46.070;14.492;2024-02-28T00:20:25;9.40;99.90
64689;DHT22;62504;46.070;14.492;2024-02-28T00:22:52;9.40;99.90
64689;DHT22;62504;46.070;14.492;2024-02-28T00:25:18;9.40;99.90
64689;DHT22;62504;46.070;14.492;2024-02-28T00:27:44;9.50;99.90
64689;DHT22;62504;46.070;14.492;2024-02-28T00:30:11;9.50;99.90
64689;DHT22;62504;46.070;14.492;2024-02-28T00:32:37;9.50;99.90
64689;DHT22;62504;46.070;14.492;2024-02-28T00:35:03;9.50;99.90
64689;DHT22;62504;46.070;14.492;2024-02-28T00:37:29;9.40;99.90
64689;DHT22;62504;46.070;14.492;2024-02-28T00:39:55;9.40;99.90
64689;DHT22;62504;46.070;14.492;2024-02-28T00:42:21;9.40;99.90
64689;DHT22;62504;46.070;14.492;2024-02-28T00:44:47;9.50;99.90
64689;DHT22;62504;46.070;14.492;2024-02-28T00:47:13;9.40;99.90
64689;DHT22;62504;46.070;14.492;2024-02-28T00:49:38;9.40;99.90
64689;DHT22;62504;46.070;14.492;2024-02-28T00:52:04;9.40;99.90
64689;DHT22;62504;46.070;14.492;2024-02-28T00:54:30;9.50;99.90
64689;DHT22;62504;46.070;14.492;2024-02-28T00:56:56;9.50;99.90
64689;DHT22;62504;46.070;14.492;2024-02-28T00:59:21;9.50;99.90
64689;DHT22;62504;46.070;14.492;2024-02-28T01:01:48;9.50;99.90
64689;DHT22;62504;46.070;14.492;2024-02-28T01:04:14;9.40;99.90
64689;DHT22;62504;46.070;14.492;2024-02-28T01:06:40;9.20;99.90
64689;DHT22;62504;46.070;14.492;2024-02-28T01:09:05;9.00;99.90
64689;DHT22;62504;46.070;14.492;2024-02-28T01:11:31;9.00;99.90
64689;DHT22;62504;46.070;14.492;2024-02-28T01:13:57;9.10;99.90
64689;DHT22;62504;46.070;14.492;2024-02-28T01:16:22;9.10;99.90
64689;DHT22;62504;46.070;14.492;2024-02-28T01:18:48;9.10;99.90
64689;DHT22;62504;46.070;14.492;2024-02-28T01:21:14;9.20;99.90
64689;DHT22;62504;46.070;14.492;2024-02-28T01:23:39;9.10;99.90
64689;DHT22;62504;46.070;14.492;2024-02-28T01:26:05;8.90;99.90
64689;DHT22;62504;46.070;14.492;2024-02-28T01:28:31;8.90;99.90
64689;DHT22;62504;46.070;14.492;2024-02-28T01:30:57;8.90;99.90
64689;DHT22;62504;46.070;14.492;2024-02-28T01:33:23;8.80;99.90
64689;DHT22;62504;46.070;14.492;2024-02-28T01:35:50;8.80;99.90
64689;DHT22;62504;46.070;14.492;2024-02-28T01:38:16;9.00;99.90
64689;DHT22;62504;46.070;14.492;2024-02-28T01:40:45;9.20;99.90
64689;DHT22;62504;46.070;14.492;2024-02-28T01:43:12;9.20;99.90
64689;DHT22;62504;46.070;14.492;2024-02-28T01:45:37;9.00;99.90
64689;DHT22;62504;46.070;14.492;2024-02-28T01:48:04;9.00;99.90
64689;DHT22;62504;46.070;14.492;2024-02-28T01:50:32;8.80;99.90
64689;DHT22;62504;46.070;14.492;2024-02-28T01:52:58;8.80;99.90
64689;DHT22;62504;46.070;14.492;2024-02-28T01:55:25;8.70;99.90
64689;DHT22;62504;46.070;14.492;2024-02-28T01:57:52;8.60;99.90
64689;DHT22;62504;46.070;14.492;2024-02-28T02:00:18;8.70;99.90
64689;DHT22;62504;46.070;14.492;2024-02-28T02:02:44;8.80;99.90
64689;DHT22;62504;46.070;14.492;2024-02-28T02:05:10;8.70;99.90
64689;DHT22;62504;46.070;14.492;2024-02-28T02:07:36;8.80;99.90
64689;DHT22;62504;46.070;14.492;2024-02-28T02:10:02;8.70;99.90
64689;DHT22;62504;46.070;14.492;2024-02-28T02:12:28;8.70;99.90
64689;DHT22;62504;46.070;14.492;2024-02-28T02:14:54;8.70;99.90
64689;DHT22;62504;46.070;14.492;2024-02-28T02:17:19;8.70;99.90
64689;DHT22;62504;46.070;14.492;2024-02-28T02:19:45;8.80;99.90
64689;DHT22;62504;46.070;14.492;2024-02-28T02:22:13;8.90;99.90
64689;DHT22;62504;46.070;14.492;2024-02-28T02:24:39;8.80;99.90
64689;DHT22;62504;46.070;14.492;2024-02-28T02:27:05;9.00;99.90
64689;DHT22;62504;46.070;14.492;2024-02-28T02:29:31;9.20;99.90
64689;DHT22;62504;46.070;14.492;2024-02-28T02:31:56;9.20;99.90
64689;DHT22;62504;46.070;14.492;2024-02-28T02:34:22;9.10;99.90
64689;DHT22;62504;46.070;14.492;2024-02-28T02:36:48;9.20;99.90
64689;DHT22;62504;46.070;14.492;2024-02-28T02:39:13;9.20;99.90
64689;DHT22;62504;46.070;14.492;2024-02-28T02:41:39;8.90;99.90
64689;DHT22;62504;46.070;14.492;2024-02-28T02:44:07;8.80;99.90
64689;DHT22;62504;46.070;14.492;2024-02-28T02:46:32;8.80;99.90
64689;DHT22;62504;46.070;14.492;2024-02-28T02:48:58;8.70;99.90
64689;DHT22;62504;46.070;14.492;2024-02-28T02:51:24;9.00;99.90
64689;DHT22;62504;46.070;14.492;2024-02-28T02:53:50;9.20;99.90
64689;DHT22;62504;46.070;14.492;2024-02-28T02:56:16;9.10;99.90
64689;DHT22;62504;46.070;14.492;2024-02-28T02:58:42;8.90;99.90
64689;DHT22;62504;46.070;14.492;2024-02-28T03:01:08;8.80;99.90
64689;DHT22;62504;46.070;14.492;2024-02-28T03:03:34;8.70;99.90
64689;DHT22;62504;46.070;14.492;2024-02-28T03:06:00;8.70;99.90
64689;DHT22;62504;46.070;14.492;2024-02-28T03:08:25;8.60;99.90
64689;DHT22;62504;46.070;14.492;2024-02-28T03:10:51;8.70;99.90
64689;DHT22;62504;46.070;14.492;2024-02-28T03:13:17;8.80;99.90
64689;DHT22;62504;46.070;14.492;2024-02-28T03:15:44;9.00;99.90
64689;DHT22;62504;46.070;14.492;2024-02-28T03:18:09;9.10;99.90
64689;DHT22;62504;46.070;14.492;2024-02-28T03:20:35;9.10;99.90
64689;DHT22;62504;46.070;14.492;2024-02-28T03:23:04;9.20;99.90
64689;DHT22;62504;46.070;14.492;2024-02-28T03:25:31;9.20;99.90
64689;DHT22;62504;46.070;14.492;2024-02-28T03:27:57;9.10;99.90
64689;DHT22;62504;46.070;14.492;2024-02-28T03:30:23;9.20;99.90
64689;DHT22;62504;46.070;14.492;2024-02-28T03:32:49;9.20;99.90
64689;DHT22;62504;46.070;14.492;2024-02-28T03:35:14;9.30;99.90
64689;DHT22;62504;46.070;14.492;2024-02-28T03:37:40;9.30;99.90
64689;DHT22;62504;46.070;14.492;2024-02-28T03:40:06;9.40;99.90
64689;DHT22;62504;46.070;14.492;2024-02-28T03:42:32;9.20;99.90
64689;DHT22;62504;46.070;14.492;2024-02-28T03:44:58;8.90;99.90
64689;DHT22;62504;46.070;14.492;2024-02-28T03:47:23;8.80;99.90
64689;DHT22;62504;46.070;14.492;2024-02-28T03:49:50;9.00;99.90
64689;DHT22;62504;46.070;14.492;2024-02-28T03:52:15;9.10;99.90
64689;DHT22;62504;46.070;14.492;2024-02-28T03:54:44;9.10;99.90
64689;DHT22;62504;46.070;14.492;2024-02-28T03:57:10;9.10;99.90
64689;DHT22;62504;46.070;14.492;2024-02-28T03:59:36;8.90;99.90
64689;DHT22;62504;46.070;14.492;2024-02-28T04:02:02;8.80;99.90
64689;DHT22;62504;46.070;14.492;2024-02-28T04:04:27;8.70;99.90
64689;DHT22;62504;46.070;14.492;2024-02-28T04:06:53;8.80;99.90
64689;DHT22;62504;46.070;14.492;2024-02-28T04:09:19;9.00;99.90
64689;DHT22;62504;46.070;14.492;2024-02-28T04:11:45;9.20;99.90
64689;DHT22;62504;46.070;14.492;2024-02-28T04:14:11;9.20;99.90
64689;DHT22;62504;46.070;14.492;2024-02-28T04:16:41;9.30;99.90
64689;DHT22;62504;46.070;14.492;2024-02-28T04:19:09;9.30;99.90
64689;DHT22;62504;46.070;14.492;2024-02-28T04:21:35;9.00;99.90
64689;DHT22;62504;46.070;14.492;2024-02-28T04:24:01;9.00;99.90
64689;DHT22;62504;46.070;14.492;2024-02-28T04:26:26;8.80;99.90
64689;DHT22;62504;46.070;14.492;2024-02-28T04:28:52;8.70;99.90
64689;DHT22;62504;46.070;14.492;2024-02-28T04:31:18;8.80;99.90
64689;DHT22;62504;46.070;14.492;2024-02-28T04:33:43;9.10;99.90
64689;DHT22;62504;46.070;14.492;2024-02-28T04:36:09;9.10;99.90
64689;DHT22;62504;46.070;14.492;2024-02-28T04:38:35;9.10;99.90
64689;DHT22;62504;46.070;14.492;2024-02-28T04:41:00;9.10;99.90
64689;DHT22;62504;46.070;14.492;2024-02-28T04:43:26;9.00;99.90
64689;DHT22;62504;46.070;14.492;2024-02-28T04:45:51;8.90;99.90
64689;DHT22;62504;46.070;14.492;2024-02-28T04:48:17;9.10;99.90
64689;DHT22;62504;46.070;14.492;2024-02-28T04:50:43;9.20;99.90
64689;DHT22;62504;46.070;14.492;2024-02-28T04:53:08;9.20;99.90
64689;DHT22;62504;46.070;14.492;2024-02-28T04:55:34;9.20;99.90
64689;DHT22;62504;46.070;14.492;2024-02-28T04:58:00;9.20;99.90
64689;DHT22;62504;46.070;14.492;2024-02-28T05:00:26;9.20;99.90
64689;DHT22;62504;46.070;14.492;2024-02-28T05:02:51;9.20;99.90
64689;DHT22;62504;46.070;14.492;2024-02-28T05:05:17;9.20;99.90
64689;DHT22;62504;46.070;14.492;2024-02-28T05:07:43;9.30;99.90
64689;DHT22;62504;46.070;14.492;2024-02-28T05:10:09;9.30;99.90
64689;DHT22;62504;46.070;14.492;2024-02-28T05:12:35;9.30;99.90
64689;DHT22;62504;46.070;14.492;2024-02-28T05:15:01;9.30;99.90
64689;DHT22;62504;46.070;14.492;2024-02-28T05:17:27;9.30;99.90
64689;DHT22;62504;46.070;14.492;2024-02-28T05:19:52;9.20;99.90
64689;DHT22;62504;46.070;14.492;2024-02-28T05:22:18;9.20;99.90
64689;DHT22;62504;46.070;14.492;2024-02-28T05:24:46;9.20;99.90
64689;DHT22;62504;46.070;14.492;2024-02-28T05:27:12;9.20;99.90
64689;DHT22;62504;46.070;14.492;2024-02-28T05:29:37;9.10;99.90
64689;DHT22;62504;46.070;14.492;2024-02-28T05:32:04;9.10;99.90
64689;DHT22;62504;46.070;14.492;2024-02-28T05:34:29;9.10;99.90
64689;DHT22;62504;46.070;14.492;2024-02-28T05:36:55;9.10;99.90
64689;DHT22;62504;46.070;14.492;2024-02-28T05:39:21;9.20;99.90
64689;DHT22;62504;46.070;14.492;2024-02-28T05:41:46;9.30;99.90
64689;DHT22;62504;46.070;14.492;2024-02-28T05:44:12;9.40;99.90
64689;DHT22;62504;46.070;14.492;2024-02-28T05:46:38;9.40;99.90
64689;DHT22;62504;46.070;14.492;2024-02-28T05:49:04;9.50;99.90
64689;DHT22;62504;46.070;14.492;2024-02-28T05:51:30;9.40;99.90
64689;DHT22;62504;46.070;14.492;2024-02-28T05:53:55;9.40;99.90
64689;DHT22;62504;46.070;14.492;2024-02-28T05:56:21;9.20;99.90
64689;DHT22;62504;46.070;14.492;2024-02-28T05:58:47;9.10;99.90
64689;DHT22;62504;46.070;14.492;2024-02-28T06:01:15;9.20;99.90
64689;DHT22;62504;46.070;14.492;2024-02-28T06:03:42;9.30;99.90
64689;DHT22;62504;46.070;14.492;2024-02-28T06:06:08;9.30;99.90
64689;DHT22;62504;46.070;14.492;2024-02-28T06:08:35;9.30;99.90
64689;DHT22;62504;46.070;14.492;2024-02-28T06:11:02;9.30;99.90
64689;DHT22;62504;46.070;14.492;2024-02-28T06:13:28;9.30;99.90
64689;DHT22;62504;46.070;14.492;2024-02-28T06:15:55;9.20;99.90
64689;DHT22;62504;46.070;14.492;2024-02-28T06:18:21;9.20;99.90
64689;DHT22;62504;46.070;14.492;2024-02-28T06:20:48;9.20;99.90
64689;DHT22;62504;46.070;14.492;2024-02-28T06:23:14;9.20;99.90
64689;DHT22;62504;46.070;14.492;2024-02-28T06:25:40;9.20;99.90
64689;DHT22;62504;46.070;14.492;2024-02-28T06:28:06;9.10;99.90
64689;DHT22;62504;46.070;14.492;2024-02-28T06:30:33;9.00;99.90
64689;DHT22;62504;46.070;14.492;2024-02-28T06:32:59;9.10;99.90
64689;DHT22;62504;46.070;14.492;2024-02-28T06:35:25;9.20;99.90
64689;DHT22;62504;46.070;14.492;2024-02-28T06:37:51;9.40;99.90
64689;DHT22;62504;46.070;14.492;2024-02-28T06:40:17;9.40;99.90
64689;DHT22;62504;46.070;14.492;2024-02-28T06:42:42;9.30;99.90
64689;DHT22;62504;46.070;14.492;2024-02-28T06:45:08;9.40;99.90
64689;DHT22;62504;46.070;14.492;2024-02-28T06:47:34;9.40;99.90
64689;DHT22;62504;46.070;14.492;2024-02-28T06:50:02;9.30;99.90
64689;DHT22;62504;46.070;14.492;2024-02-28T06:52:28;9.20;99.90
64689;DHT22;62504;46.070;14.492;2024-02-28T06:54:53;9.20;99.90
64689;DHT22;62504;46.070;14.492;2024-02-28T06:57:19;9.20;99.90
64689;DHT22;62504;46.070;14.492;2024-02-28T06:59:45;9.20;99.90
64689;DHT22;62504;46.070;14.492;2024-02-28T07:02:11;9.30;99.90
64689;DHT22;62504;46.070;14.492;2024-02-28T07:04:38;9.40;99.90
64689;DHT22;62504;46.070;14.492;2024-02-28T07:07:04;9.50;99.90
64689;DHT22;62504;46.070;14.492;2024-02-28T07:09:31;9.50;99.90
64689;DHT22;62504;46.070;14.492;2024-02-28T07:11:58;9.40;99.90
64689;DHT22;62504;46.070;14.492;2024-02-28T07:14:24;9.40;99.90
64689;DHT22;62504;46.070;14.492;2024-02-28T07:16:50;9.50;99.90
64689;DHT22;62504;46.070;14.492;2024-02-28T07:19:17;9.40;99.90
64689;DHT22;62504;46.070;14.492;2024-02-28T07:21:44;9.40;99.90
64689;DHT22;62504;46.070;14.492;2024-02-28T07:24:10;9.40;99.90
64689;DHT22;62504;46.070;14.492;2024-02-28T07:26:35;9.30;99.90
64689;DHT22;62504;46.070;14.492;2024-02-28T07:29:01;9.50;99.90
64689;DHT22;62504;46.070;14.492;2024-02-28T07:31:27;9.40;99.90
64689;DHT22;62504;46.070;14.492;2024-02-28T07:33:53;9.40;99.90
64689;DHT22;62504;46.070;14.492;2024-02-28T07:36:19;9.50;99.90
64689;DHT22;62504;46.070;14.492;2024-02-28T07:38:45;9.70;99.90
64689;DHT22;62504;46.070;14.492;2024-02-28T07:41:11;9.70;99.90
64689;DHT22;62504;46.070;14.492;2024-02-28T07:43:37;9.50;99.90
64689;DHT22;62504;46.070;14.492;2024-02-28T07:46:12;9.50;99.90
64689;DHT22;62504;46.070;14.492;2024-02-28T07:48:38;9.70;99.90
64689;DHT22;62504;46.070;14.492;2024-02-28T07:51:07;9.60;99.90
64689;DHT22;62504;46.070;14.492;2024-02-28T07:53:34;9.60;99.90
64689;DHT22;62504;46.070;14.492;2024-02-28T07:55:59;9.50;99.90
64689;DHT22;62504;46.070;14.492;2024-02-28T07:58:25;9.80;99.90
64689;DHT22;62504;46.070;14.492;2024-02-28T08:00:51;9.70;99.90
64689;DHT22;62504;46.070;14.492;2024-02-28T08:03:20;9.70;99.90
64689;DHT22;62504;46.070;14.492;2024-02-28T08:05:46;9.70;99.90
64689;DHT22;62504;46.070;14.492;2024-02-28T08:08:12;9.90;99.90
64689;DHT22;62504;46.070;14.492;2024-02-28T08:10:38;10.00;99.90
64689;DHT22;62504;46.070;14.492;2024-02-28T08:13:04;10.10;99.90
64689;DHT22;62504;46.070;14.492;2024-02-28T08:15:30;10.40;99.90
64689;DHT22;62504;46.070;14.492;2024-02-28T08:17:57;10.70;99.90
64689;DHT22;62504;46.070;14.492;2024-02-28T08:20:22;10.70;99.90
64689;DHT22;62504;46.070;14.492;2024-02-28T08:22:48;10.80;99.90
64689;DHT22;62504;46.070;14.492;2024-02-28T08:25:14;10.70;99.90
64689;DHT22;62504;46.070;14.492;2024-02-28T08:27:40;10.70;99.90
64689;DHT22;62504;46.070;14.492;2024-02-28T08:30:06;11.20;99.90
64689;DHT22;62504;46.070;14.492;2024-02-28T08:32:32;11.20;99.90
64689;DHT22;62504;46.070;14.492;2024-02-28T08:34:58;11.60;99.90
64689;DHT22;62504;46.070;14.492;2024-02-28T08:37:24;11.90;99.90
64689;DHT22;62504;46.070;14.492;2024-02-28T08:39:50;12.20;99.90
64689;DHT22;62504;46.070;14.492;2024-02-28T08:42:16;12.10;99.90
64689;DHT22;62504;46.070;14.492;2024-02-28T08:44:42;12.10;99.90
64689;DHT22;62504;46.070;14.492;2024-02-28T08:47:07;11.90;99.90
64689;DHT22;62504;46.070;14.492;2024-02-28T08:49:34;11.90;99.90
64689;DHT22;62504;46.070;14.492;2024-02-28T08:52:01;11.60;99.90
64689;DHT22;62504;46.070;14.492;2024-02-28T08:54:27;11.60;99.90
64689;DHT22;62504;46.070;14.492;2024-02-28T08:56:53;11.70;99.90
64689;DHT22;62504;46.070;14.492;2024-02-28T08:59:19;11.70;99.90
64689;DHT22;62504;46.070;14.492;2024-02-28T09:01:45;11.60;99.90
64689;DHT22;62504;46.070;14.492;2024-02-28T09:04:10;11.90;99.90
64689;DHT22;62504;46.070;14.492;2024-02-28T09:06:36;11.90;99.90
64689;DHT22;62504;46.070;14.492;2024-02-28T09:09:02;11.70;99.90
64689;DHT22;62504;46.070;14.492;2024-02-28T09:11:29;11.70;99.90
64689;DHT22;62504;46.070;14.492;2024-02-28T09:13:55;12.00;99.90
64689;DHT22;62504;46.070;14.492;2024-02-28T09:16:20;12.20;99.90
64689;DHT22;62504;46.070;14.492;2024-02-28T09:18:46;12.20;99.90
64689;DHT22;62504;46.070;14.492;2024-02-28T09:21:12;12.10;99.90
64689;DHT22;62504;46.070;14.492;2024-02-28T09:23:37;12.30;99.90
64689;DHT22;62504;46.070;14.492;2024-02-28T09:26:06;12.50;99.90
64689;DHT22;62504;46.070;14.492;2024-02-28T09:28:32;12.80;99.90
64689;DHT22;62504;46.070;14.492;2024-02-28T09:30:58;13.00;99.90
64689;DHT22;62504;46.070;14.492;2024-02-28T09:33:23;13.10;99.90
64689;DHT22;62504;46.070;14.492;2024-02-28T09:35:49;13.10;99.90
64689;DHT22;62504;46.070;14.492;2024-02-28T09:38:15;12.90;99.90
64689;DHT22;62504;46.070;14.492;2024-02-28T09:40:41;12.70;99.90
64689;DHT22;62504;46.070;14.492;2024-02-28T09:43:22;12.60;99.90
64689;DHT22;62504;46.070;14.492;2024-02-28T09:45:50;12.70;99.90
64689;DHT22;62504;46.070;14.492;2024-02-28T09:48:16;12.80;99.90
64689;DHT22;62504;46.070;14.492;2024-02-28T09:50:43;12.70;99.90
64689;DHT22;62504;46.070;14.492;2024-02-28T09:53:09;12.80;99.90
64689;DHT22;62504;46.070;14.492;2024-02-28T09:55:35;12.80;99.90
64689;DHT22;62504;46.070;14.492;2024-02-28T09:58:01;12.70;99.90
64689;DHT22;62504;46.070;14.492;2024-02-28T10:00:28;12.70;99.90
64689;DHT22;62504;46.070;14.492;2024-02-28T10:02:54;12.60;99.90
64689;DHT22;62504;46.070;14.492;2024-02-28T10:05:21;12.60;99.90
64689;DHT22;62504;46.070;14.492;2024-02-28T10:07:47;12.50;99.90
64689;DHT22;62504;46.070;14.492;2024-02-28T10:10:12;12.40;99.90
64689;DHT22;62504;46.070;14.492;2024-02-28T10:12:42;12.40;99.90
64689;DHT22;62504;46.070;14.492;2024-02-28T10:15:09;12.60;99.90
64689;DHT22;62504;46.070;14.492;2024-02-28T10:17:35;12.50;99.90
64689;DHT22;62504;46.070;14.492;2024-02-28T10:20:01;12.50;99.90
64689;DHT22;62504;46.070;14.492;2024-02-28T10:22:34;12.60;99.90
64689;DHT22;62504;46.070;14.492;2024-02-28T10:25:00;12.60;99.90
64689;DHT22;62504;46.070;14.492;2024-02-28T10:27:26;12.70;99.90
64689;DHT22;62504;46.070;14.492;2024-02-28T10:29:51;12.80;99.90
64689;DHT22;62504;46.070;14.492;2024-02-28T10:32:17;12.90;99.90
64689;DHT22;62504;46.070;14.492;2024-02-28T10:34:43;12.90;99.90
64689;DHT22;62504;46.070;14.492;2024-02-28T10:37:10;12.60;99.90
64689;DHT22;62504;46.070;14.492;2024-02-28T10:39:38;12.50;99.90
64689;DHT22;62504;46.070;14.492;2024-02-28T10:42:04;12.60;99.90
64689;DHT22;62504;46.070;14.492;2024-02-28T10:44:31;12.60;99.90
64689;DHT22;62504;46.070;14.492;2024-02-28T10:47:00;12.70;99.90
64689;DHT22;62504;46.070;14.492;2024-02-28T10:49:27;12.60;99.90
64689;DHT22;62504;46.070;14.492;2024-02-28T10:51:56;12.50;99.90
64689;DHT22;62504;46.070;14.492;2024-02-28T10:54:24;12.30;99.90
64689;DHT22;62504;46.070;14.492;2024-02-28T10:56:51;12.40;99.90
64689;DHT22;62504;46.070;14.492;2024-02-28T10:59:21;12.50;99.90
64689;DHT22;62504;46.070;14.492;2024-02-28T11:01:46;12.60;99.90
64689;DHT22;62504;46.070;14.492;2024-02-28T11:04:15;12.70;99.90
64689;DHT22;62504;46.070;14.492;2024-02-28T11:06:55;12.70;99.90
64689;DHT22;62504;46.070;14.492;2024-02-28T11:09:25;12.90;99.90
64689;DHT22;62504;46.070;14.492;2024-02-28T11:11:52;13.00;99.90
64689;DHT22;62504;46.070;14.492;2024-02-28T11:14:18;13.00;99.90
64689;DHT22;62504;46.070;14.492;2024-02-28T11:17:05;13.00;99.90
64689;DHT22;62504;46.070;14.492;2024-02-28T11:19:32;13.20;99.90
64689;DHT22;62504;46.070;14.492;2024-02-28T11:21:59;13.00;99.90
64689;DHT22;62504;46.070;14.492;2024-02-28T11:24:30;12.90;99.90
64689;DHT22;62504;46.070;14.492;2024-02-28T11:26:59;13.10;99.90
64689;DHT22;62504;46.070;14.492;2024-02-28T11:29:28;13.20;99.90
64689;DHT22;62504;46.070;14.492;2024-02-28T11:31:55;13.10;99.90
64689;DHT22;62504;46.070;14.492;2024-02-28T11:34:21;13.20;99.90
64689;DHT22;62504;46.070;14.492;2024-02-28T11:36:50;13.30;99.90
64689;DHT22;62504;46.070;14.492;2024-02-28T11:39:17;13.30;99.90
64689;DHT22;62504;46.070;14.492;2024-02-28T11:41:46;13.30;99.90
64689;DHT22;62504;46.070;14.492;2024-02-28T11:44:18;13.30;99.90
64689;DHT22;62504;46.070;14.492;2024-02-28T11:46:48;13.30;99.90
64689;DHT22;62504;46.070;14.492;2024-02-28T11:49:14;13.30;99.90
64689;DHT22;62504;46.070;14.492;2024-02-28T11:51:41;13.40;99.90
64689;DHT22;62504;46.070;14.492;2024-02-28T11:54:08;13.30;99.90
64689;DHT22;62504;46.070;14.492;2024-02-28T11:56:34;13.30;99.90
64689;DHT22;62504;46.070;14.492;2024-02-28T11:59:00;13.40;99.90
64689;DHT22;62504;46.070;14.492;2024-02-28T12:01:36;13.50;99.90
64689;DHT22;62504;46.070;14.492;2024-02-28T12:04:05;13.50;99.90
64689;DHT22;62504;46.070;14.492;2024-02-28T12:06:35;13.50;99.90
64689;DHT22;62504;46.070;14.492;2024-02-28T12:09:07;13.50;99.90
64689;DHT22;62504;46.070;14.492;2024-02-28T12:11:37;13.50;99.90
64689;DHT22;62504;46.070;14.492;2024-02-28T12:14:12;13.40;99.90
64689;DHT22;62504;46.070;14.492;2024-02-28T12:16:39;13.40;99.90
64689;DHT22;62504;46.070;14.492;2024-02-28T12:19:11;13.50;99.90
64689;DHT22;62504;46.070;14.492;2024-02-28T12:21:39;13.50;99.90
64689;DHT22;62504;46.070;14.492;2024-02-28T12:24:08;13.60;99.90
64689;DHT22;62504;46.070;14.492;2024-02-28T12:26:37;13.60;99.90
64689;DHT22;62504;46.070;14.492;2024-02-28T12:29:03;13.70;99.90
64689;DHT22;62504;46.070;14.492;2024-02-28T12:31:29;13.70;99.90
64689;DHT22;62504;46.070;14.492;2024-02-28T12:33:55;13.60;99.90
64689;DHT22;62504;46.070;14.492;2024-02-28T12:36:21;13.50;99.90
64689;DHT22;62504;46.070;14.492;2024-02-28T12:38:47;13.40;99.90
64689;DHT22;62504;46.070;14.492;2024-02-28T12:41:14;13.50;99.90
64689;DHT22;62504;46.070;14.492;2024-02-28T12:43:41;13.50;99.90
64689;DHT22;62504;46.070;14.492;2024-02-28T12:46:06;13.50;99.90
64689;DHT22;62504;46.070;14.492;2024-02-28T12:48:38;13.60;99.90
64689;DHT22;62504;46.070;14.492;2024-02-28T12:51:05;13.70;99.90
64689;DHT22;62504;46.070;14.492;2024-02-28T12:53:31;13.70;99.90
64689;DHT22;62504;46.070;14.492;2024-02-28T12:55:57;13.70;99.90
64689;DHT22;62504;46.070;14.492;2024-02-28T12:58:22;13.80;99.90
64689;DHT22;62504;46.070;14.492;2024-02-28T13:00:51;13.70;99.90
64689;DHT22;62504;46.070;14.492;2024-02-28T13:03:18;13.80;99.90
64689;DHT22;62504;46.070;14.492;2024-02-28T13:05:44;13.90;99.90
64689;DHT22;62504;46.070;14.492;2024-02-28T13:08:09;13.80;99.90
64689;DHT22;62504;46.070;14.492;2024-02-28T13:10:36;13.70;99.90
64689;DHT22;62504;46.070;14.492;2024-02-28T13:13:05;13.70;99.90
64689;DHT22;62504;46.070;14.492;2024-02-28T13:15:31;13.60;99.90
64689;DHT22;62504;46.070;14.492;2024-02-28T13:17:57;13.50;99.90
64689;DHT22;62504;46.070;14.492;2024-02-28T13:20:23;13.60;99.90
64689;DHT22;62504;46.070;14.492;2024-02-28T13:22:49;13.70;99.90
64689;DHT22;62504;46.070;14.492;2024-02-28T13:25:15;13.80;99.90
64689;DHT22;62504;46.070;14.492;2024-02-28T13:27:43;13.90;99.90
64689;DHT22;62504;46.070;14.492;2024-02-28T13:30:09;13.90;99.90
64689;DHT22;62504;46.070;14.492;2024-02-28T13:32:35;13.80;99.90
64689;DHT22;62504;46.070;14.492;2024-02-28T13:35:01;13.70;99.90
64689;DHT22;62504;46.070;14.492;2024-02-28T13:37:26;13.70;99.90
64689;DHT22;62504;46.070;14.492;2024-02-28T13:39:52;13.60;99.90
64689;DHT22;62504;46.070;14.492;2024-02-28T13:42:18;13.80;99.90
64689;DHT22;62504;46.070;14.492;2024-02-28T13:44:47;13.80;99.90
64689;DHT22;62504;46.070;14.492;2024-02-28T13:47:13;13.90;99.90
64689;DHT22;62504;46.070;14.492;2024-02-28T13:49:41;13.90;99.90
64689;DHT22;62504;46.070;14.492;2024-02-28T13:52:07;13.90;99.90
64689;DHT22;62504;46.070;14.492;2024-02-28T13:54:33;13.90;99.90
64689;DHT22;62504;46.070;14.492;2024-02-28T13:57:00;14.00;99.90
64689;DHT22;62504;46.070;14.492;2024-02-28T13:59:27;13.90;99.90
64689;DHT22;62504;46.070;14.492;2024-02-28T14:01:52;13.90;99.90
64689;DHT22;62504;46.070;14.492;2024-02-28T14:04:18;13.90;99.90
64689;DHT22;62504;46.070;14.492;2024-02-28T14:06:44;13.80;99.90
64689;DHT22;62504;46.070;14.492;2024-02-28T14:09:11;13.70;99.90
64689;DHT22;62504;46.070;14.492;2024-02-28T14:11:37;13.60;99.90
64689;DHT22;62504;46.070;14.492;2024-02-28T14:14:04;13.60;99.90
64689;DHT22;62504;46.070;14.492;2024-02-28T14:16:30;13.60;99.90
64689;DHT22;62504;46.070;14.492;2024-02-28T14:18:59;13.70;99.90
64689;DHT22;62504;46.070;14.492;2024-02-28T14:21:25;13.60;99.90
64689;DHT22;62504;46.070;14.492;2024-02-28T14:23:51;13.70;99.90
64689;DHT22;62504;46.070;14.492;2024-02-28T14:26:17;13.60;99.90
64689;DHT22;62504;46.070;14.492;2024-02-28T14:28:43;13.60;99.90
64689;DHT22;62504;46.070;14.492;2024-02-28T14:31:08;13.60;99.90
64689;DHT22;62504;46.070;14.492;2024-02-28T14:33:34;13.60;99.90
64689;DHT22;62504;46.070;14.492;2024-02-28T14:36:00;13.60;99.90
64689;DHT22;62504;46.070;14.492;2024-02-28T14:38:26;13.60;99.90
64689;DHT22;62504;46.070;14.492;2024-02-28T14:40:51;13.60;99.90
64689;DHT22;62504;46.070;14.492;2024-02-28T14:43:17;13.60;99.90
64689;DHT22;62504;46.070;14.492;2024-02-28T14:45:43;13.80;99.90
64689;DHT22;62504;46.070;14.492;2024-02-28T14:48:08;13.90;99.90
64689;DHT22;62504;46.070;14.492;2024-02-28T14:50:34;13.90;99.90
64689;DHT22;62504;46.070;14.492;2024-02-28T14:53:00;14.00;99.90
64689;DHT22;62504;46.070;14.492;2024-02-28T14:55:25;13.90;99.90
64689;DHT22;62504;46.070;14.492;2024-02-28T14:57:51;13.80;99.90
64689;DHT22;62504;46.070;14.492;2024-02-28T15:00:18;13.70;99.90
64689;DHT22;62504;46.070;14.492;2024-02-28T15:02:44;13.70;99.90
64689;DHT22;62504;46.070;14.492;2024-02-28T15:05:13;13.70;99.90
64689;DHT22;62504;46.070;14.492;2024-02-28T15:07:40;13.60;99.90
64689;DHT22;62504;46.070;14.492;2024-02-28T15:10:07;13.60;99.90
64689;DHT22;62504;46.070;14.492;2024-02-28T15:12:33;13.60;99.90
64689;DHT22;62504;46.070;14.492;2024-02-28T15:15:03;13.60;99.90
64689;DHT22;62504;46.070;14.492;2024-02-28T15:17:30;13.60;99.90
64689;DHT22;62504;46.070;14.492;2024-02-28T15:19:55;13.80;99.90